Time;durP1;ratioP1;P1;durP2;ratioP2;P2;SDS_P1;SDS_P2;PMS_P1;PMS_P2;Temp;Humidity;BMP_temperature;BMP_pressure;BME280_temperature;BME280_humidity;BME280_pressure;Samples;Min_cycle;Max_cycle;Signal;HPM_P1;HPM_P2
2022/11/28 00:01:42;;;;;;;88.30;18.67;;;;;;;;;;5049184;28;20036;-69
2022/11/28 00:04:07;;;;;;;65.55;19.25;;;;;;;;;;5044957;28;20036;-69
2022/11/28 00:06:34;;;;;;;90.35;19.75;;;;;;;;;;5018802;28;20026;-69
2022/11/28 00:09:00;;;;;;;165.85;20.88;;;;;;;;;;5025562;28;20054;-69
2022/11/28 00:11:25;;;;;;;161.98;21.73;;;;;;;;;;5041569;28;20087;-70
2022/11/28 00:13:50;;;;;;;173.18;19.58;;;;;;;;;;5042256;28;20151;-70
2022/11/28 00:16:20;;;;;;;98.07;17.50;;;;;;;;;;5046957;28;20459;-69
2022/11/28 00:18:45;;;;;;;130.70;18.88;;;;;;;;;;5039230;28;20420;-69
2022/11/28 00:21:11;;;;;;;159.57;19.50;;;;;;;;;;5030505;28;20155;-70
2022/11/28 00:23:37;;;;;;;139.18;18.15;;;;;;;;;;5043524;28;20053;-70
2022/11/28 00:26:04;;;;;;;89.18;17.45;;;;;;;;;;5049446;28;20028;-69
2022/11/28 00:28:30;;;;;;;90.57;16.98;;;;;;;;;;5054415;28;20024;-70
2022/11/28 00:30:55;;;;;;;81.15;16.00;;;;;;;;;;5046490;28;20633;-70
2022/11/28 00:33:21;;;;;;;118.57;17.23;;;;;;;;;;5045341;28;20013;-69
2022/11/28 00:35:46;;;;;;;56.60;15.27;;;;;;;;;;5051366;28;20282;-69
2022/11/28 00:38:11;;;;;;;69.77;15.77;;;;;;;;;;5049380;28;20029;-69
2022/11/28 00:40:36;;;;;;;102.37;15.40;;;;;;;;;;5049118;28;20278;-70
2022/11/28 00:43:01;;;;;;;81.68;14.90;;;;;;;;;;5033111;28;20035;-70
2022/11/28 00:45:27;;;;;;;83.67;15.33;;;;;;;;;;5052848;28;20082;-69
2022/11/28 00:47:52;;;;;;;54.17;13.80;;;;;;;;;;5043702;28;20310;-68
2022/11/28 00:50:17;;;;;;;92.37;14.13;;;;;;;;;;5047646;28;20021;-69
2022/11/28 00:52:43;;;;;;;76.47;12.57;;;;;;;;;;5048266;28;20278;-68
2022/11/28 00:55:08;;;;;;;95.53;13.57;;;;;;;;;;5035783;28;20278;-69
2022/11/28 00:57:33;;;;;;;29.97;13.03;;;;;;;;;;5041881;28;20759;-68
2022/11/28 00:59:58;;;;;;;72.93;14.03;;;;;;;;;;5046799;28;20536;-69
2022/11/28 01:02:23;;;;;;;68.30;13.48;;;;;;;;;;5046494;28;20281;-67
2022/11/28 01:04:49;;;;;;;55.17;12.33;;;;;;;;;;5043192;28;20029;-69
2022/11/28 01:07:14;;;;;;;43.07;12.83;;;;;;;;;;5044128;28;20037;-69
2022/11/28 01:09:40;;;;;;;61.10;14.25;;;;;;;;;;5038099;28;20286;-68
2022/11/28 01:12:05;;;;;;;50.10;12.67;;;;;;;;;;5046346;28;20082;-68
2022/11/28 01:14:30;;;;;;;31.90;13.33;;;;;;;;;;5031218;28;20074;-68
2022/11/28 01:16:55;;;;;;;41.87;12.93;;;;;;;;;;5046875;28;20652;-69
2022/11/28 01:19:21;;;;;;;55.00;13.15;;;;;;;;;;5038214;28;20282;-68
2022/11/28 01:21:46;;;;;;;49.38;12.93;;;;;;;;;;5029189;28;20025;-69
2022/11/28 01:24:11;;;;;;;36.75;12.30;;;;;;;;;;5038056;28;20661;-69
2022/11/28 01:26:38;;;;;;;35.05;11.77;;;;;;;;;;5031413;28;20025;-68
2022/11/28 01:29:03;;;;;;;81.13;14.93;;;;;;;;;;5045562;28;20043;-69
2022/11/28 01:31:28;;;;;;;36.33;12.63;;;;;;;;;;5048553;28;20445;-69
2022/11/28 01:33:54;;;;;;;29.88;12.52;;;;;;;0.38;nan;101531.66;5031386;28;20309;-68
2022/11/28 01:36:20;;;;;;;27.40;13.07;;;;;;;;;;5043385;28;20568;-69
2022/11/28 01:38:45;;;;;;;59.47;13.80;;;;;;;;;;5031173;28;20042;-67
2022/11/28 01:41:12;;;;;;;27.65;12.85;;;;;;;0.39;nan;101471.09;5048930;28;20029;-69
2022/11/28 01:43:55;;;;;;;40.08;13.13;;;;;;;;;;5046236;28;20025;-68
2022/11/28 01:46:20;;;;;;;61.83;13.23;;;;;;;;;;5026889;28;20029;-68
2022/11/28 01:48:45;;;;;;;34.58;12.73;;;;;;;;;;5042004;28;20164;-69
2022/11/28 01:51:11;;;;;;;29.40;12.57;;;;;;;;;;5042675;28;20371;-68
2022/11/28 01:53:38;;;;;;;25.77;12.10;;;;;;;;;;5043174;28;20279;-70
2022/11/28 01:56:26;;;;;;;31.60;12.82;;;;;;;;;;5048960;28;20033;-68
2022/11/28 01:58:58;;;;;;;40.25;12.40;;;;;;;;;;5034455;28;20056;-68
2022/11/28 02:01:23;;;;;;;36.22;12.45;;;;;;;;;;5045579;28;20074;-69
2022/11/28 02:03:49;;;;;;;51.00;12.50;;;;;;;;;;5047578;28;20021;-69
2022/11/28 02:06:17;;;;;;;26.73;11.63;;;;;;;;;;5045567;28;20467;-69
2022/11/28 02:08:42;;;;;;;37.50;11.25;;;;;;;;;;5042468;28;20082;-69
2022/11/28 02:11:13;;;;;;;37.53;11.73;;;;;;;;;;5040189;28;20037;-69
2022/11/28 02:13:41;;;;;;;24.80;10.52;;;;;;;;;;5040243;28;20056;-69
2022/11/28 02:16:21;;;;;;;24.58;11.57;;;;;;;;;;5044751;28;20104;-68
2022/11/28 02:18:53;;;;;;;27.05;12.27;;;;;;;;;;5031795;28;20024;-69
2022/11/28 02:21:21;;;;;;;23.85;11.60;;;;;;;;;;5041366;28;20569;-69
2022/11/28 02:24:05;;;;;;;86.17;12.53;;;;;;;;;;5047333;28;20569;-68
2022/11/28 02:26:30;;;;;;;67.90;11.77;;;;;;;;;;5043487;28;20067;-69
2022/11/28 02:28:59;;;;;;;46.07;11.40;;;;;;;;;;5053186;28;20376;-68
2022/11/28 02:31:36;;;;;;;118.05;12.52;;;;;;;;;;5051330;28;20033;-68
2022/11/28 02:34:07;;;;;;;78.75;11.52;;;;;;;;;;5044212;28;20032;-68
2022/11/28 02:36:34;;;;;;;72.03;12.07;;;;;;;;;;5051015;28;20033;-68
2022/11/28 02:39:03;;;;;;;42.47;11.30;;;;;;;;;;5031753;28;20457;-68
2022/11/28 02:41:28;;;;;;;85.88;11.75;;;;;;;;;;5047588;28;20117;-68
2022/11/28 02:44:11;;;;;;;43.23;10.13;;;;;;;;;;5046660;28;20443;-70
2022/11/28 02:46:45;;;;;;;73.10;10.98;;;;;;;;;;5048317;28;20505;-69
2022/11/28 02:49:13;;;;;;;42.92;10.18;;;;;;;;;;5045660;28;20047;-69
2022/11/28 02:51:54;;;;;;;59.15;10.68;;;;;;;;;;5054937;28;20105;-69
2022/11/28 02:54:19;;;;;;;30.60;9.70;;;;;;;;;;5034800;28;20384;-69
2022/11/28 02:56:52;;;;;;;114.00;11.00;;;;;;;;;;5036670;28;20024;-68
2022/11/28 02:59:37;;;;;;;50.58;10.00;;;;;;;;;;5048905;28;20016;-69
2022/11/28 03:02:04;;;;;;;80.47;10.27;;;;;;;;;;5044135;28;20070;-70
2022/11/28 03:04:36;;;;;;;53.55;9.93;;;;;;;;;;5048365;28;20032;-68
2022/11/28 03:07:11;;;;;;;106.07;10.70;;;;;;;;;;5027234;28;20039;-68
2022/11/28 03:09:37;;;;;;;76.10;11.02;;;;;;;;;;5048107;28;20025;-68
2022/11/28 03:12:11;;;;;;;61.33;10.88;;;;;;;-0.59;nan;101468.16;5032046;28;20386;-69
2022/11/28 03:14:51;;;;;;;104.15;12.70;;;;;;;-0.67;nan;101469.59;5051492;28;20024;-68
2022/11/28 03:17:29;;;;;;;56.05;11.02;;;;;;;-0.69;nan;101453.38;5048523;28;20028;-68
2022/11/28 03:20:13;;;;;;;66.68;11.43;;;;;;;-0.63;nan;101464.97;5047483;28;20037;-69
2022/11/28 03:23:00;;;;;;;93.47;10.88;;;;;;;-0.69;nan;101466.31;5047977;28;20060;-69
2022/11/28 03:25:34;;;;;;;24.98;9.45;;;;;;;-0.71;nan;101464.78;5050986;28;20113;-67
2022/11/28 03:28:13;;;;;;;75.60;11.05;;;;;;;-0.80;nan;101462.94;5049862;28;20679;-68
2022/11/28 03:30:51;;;;;;;63.83;10.63;;;;;;;-0.80;nan;101471.53;5029575;28;20106;-68
2022/11/28 03:33:17;;;;;;;67.07;10.30;;;;;;;;;;5029447;28;20029;-69
2022/11/28 03:35:46;;;;;;;82.38;11.25;;;;;;;;;;5028615;28;20120;-68
2022/11/28 03:38:31;;;;;;;29.03;7.87;;;;;;;;;;5048199;28;20119;-68
2022/11/28 03:40:58;;;;;;;91.68;11.38;;;;;;;;;;5049391;28;20890;-69
2022/11/28 03:43:26;;;;;;;48.08;10.05;;;;;;;;;;5042361;28;20029;-69
2022/11/28 03:45:54;;;;;;;58.42;10.60;;;;;;;;;;5048484;28;20040;-68
2022/11/28 03:48:28;;;;;;;78.82;11.05;;;;;;;;;;5046851;28;20025;-68
2022/11/28 03:51:23;;;;;;;62.28;10.90;;;;;;;;;;5040479;28;20683;-68
2022/11/28 03:54:07;;;;;;;85.80;12.25;;;;;;;;;;5023365;28;20123;-68
2022/11/28 03:56:51;;;;;;;43.35;11.93;;;;;;;;;;5054096;28;20056;-67
2022/11/28 03:59:36;;;;;;;36.00;11.57;;;;;;;;;;5045867;28;20040;-68
2022/11/28 04:02:21;;;;;;;65.07;11.02;;;;;;;;;;5040565;28;20029;-68
2022/11/28 04:04:46;;;;;;;46.60;9.82;;;;;;;;;;5027192;28;20057;-68
2022/11/28 04:07:30;;;;;;;51.17;10.20;;;;;;;;;;5048147;28;20450;-71
2022/11/28 04:09:59;;;;;;;43.35;10.75;;;;;;;;;;5045539;28;20021;-71
2022/11/28 04:12:44;;;;;;;29.53;10.67;;;;;;;;;;5045257;28;20025;-71
2022/11/28 04:15:29;;;;;;;62.70;11.20;;;;;;;;;;5046070;28;20021;-72
2022/11/28 04:18:01;;;;;;;33.08;11.77;;;;;;;;;;5038662;28;20043;-72
2022/11/28 04:20:35;;;;;;;37.63;11.77;;;;;;;;;;5047178;28;20079;-70
2022/11/28 04:23:04;;;;;;;65.25;14.02;;;;;;;;;;5031575;28;20110;-72
2022/11/28 04:25:33;;;;;;;36.03;12.50;;;;;;;;;;5048360;28;20034;-72
2022/11/28 04:28:03;;;;;;;28.52;11.50;;;;;;;;;;5031226;28;20040;-72
2022/11/28 04:30:28;;;;;;;47.55;11.45;;;;;;;;;;5045287;28;20047;-72
2022/11/28 04:32:59;;;;;;;40.90;11.93;;;;;;;;;;5027877;28;20037;-70
2022/11/28 04:35:26;;;;;;;20.75;9.98;;;;;;;;;;5041431;28;20028;-71
2022/11/28 04:37:52;;;;;;;35.05;10.48;;;;;;;;;;5039033;28;20083;-70
2022/11/28 04:40:18;;;;;;;24.05;10.13;;;;;;;;;;5040329;28;20438;-70
2022/11/28 04:42:47;;;;;;;26.55;9.73;;;;;;;;;;5047503;28;20390;-70
2022/11/28 04:45:18;;;;;;;34.20;9.15;;;;;;;;;;5024946;28;20029;-70
2022/11/28 04:47:43;;;;;;;33.50;9.48;;;;;;;;;;5037983;28;20033;-70
2022/11/28 04:50:09;;;;;;;35.72;10.65;;;;;;;;;;5027272;28;21566;-70
2022/11/28 04:52:53;;;;;;;18.52;9.35;;;;;;;;;;5042024;28;20021;-69
2022/11/28 04:55:18;;;;;;;19.00;9.32;;;;;;;;;;5043467;28;20032;-72
2022/11/28 04:57:45;;;;;;;25.87;10.13;;;;;;;;;;5031467;28;20025;-73
2022/11/28 05:00:15;;;;;;;32.53;9.80;;;;;;;;;;5044141;28;20620;-72
2022/11/28 05:02:42;;;;;;;25.90;10.00;;;;;;;;;;5046885;28;20020;-73
2022/11/28 05:05:08;;;;;;;39.95;10.52;;;;;;;;;;5043399;28;20030;-73
2022/11/28 05:07:34;;;;;;;30.23;10.18;;;;;;;;;;5045787;28;20414;-70
2022/11/28 05:09:59;;;;;;;38.60;9.90;;;;;;;;;;5027931;28;20025;-70
2022/11/28 05:12:24;;;;;;;33.75;10.02;;;;;;;;;;5038914;28;20281;-70
2022/11/28 05:14:49;;;;;;;115.33;12.53;;;;;;;;;;5044691;28;20025;-70
2022/11/28 05:17:15;;;;;;;113.23;11.13;;;;;;;;;;5044003;28;20322;-70
2022/11/28 05:19:40;;;;;;;154.63;11.43;;;;;;;;;;5041557;28;20787;-69
2022/11/28 05:22:05;;;;;;;154.67;10.97;;;;;;;;;;5046866;28;20498;-70
2022/11/28 05:24:30;;;;;;;54.17;9.60;;;;;;;;;;5048363;28;20391;-69
2022/11/28 05:26:56;;;;;;;48.50;8.87;;;;;;;;;;5048774;28;20470;-70
2022/11/28 05:29:23;;;;;;;138.57;11.63;;;;;;;;;;5026212;28;20029;-70
2022/11/28 05:31:48;;;;;;;129.32;11.85;;;;;;;;;;5042416;28;20285;-70
2022/11/28 05:34:14;;;;;;;145.37;11.40;;;;;;;;;;5040752;28;20029;-70
2022/11/28 05:36:39;;;;;;;164.50;12.33;;;;;;;;;;5028933;28;20605;-69
2022/11/28 05:39:04;;;;;;;71.85;9.63;;;;;;;;;;5041534;28;20282;-69
2022/11/28 05:41:30;;;;;;;111.57;10.90;;;;;;;;;;5046716;28;20496;-70
2022/11/28 05:43:56;;;;;;;167.68;12.90;;;;;;;;;;5027530;28;20029;-69
2022/11/28 05:46:22;;;;;;;70.00;10.30;;;;;;;;;;5047565;28;20052;-69
2022/11/28 05:48:47;;;;;;;192.77;12.75;;;;;;;;;;5045243;28;20041;-70
2022/11/28 05:51:13;;;;;;;239.02;14.05;;;;;;;;;;5039485;28;20025;-69
2022/11/28 05:53:38;;;;;;;122.03;10.95;;;;;;;;;;5039707;28;20029;-70
2022/11/28 05:56:10;;;;;;;149.40;11.30;;;;;;;;;;5039578;28;20121;-70
2022/11/28 05:58:36;;;;;;;175.48;12.40;;;;;;;;;;5042141;28;20316;-70
2022/11/28 06:01:08;;;;;;;141.82;10.85;;;;;;;;;;5044498;28;20389;-70
2022/11/28 06:03:33;;;;;;;146.15;11.05;;;;;;;;;;5044100;28;20103;-69
2022/11/28 06:05:58;;;;;;;125.53;11.00;;;;;;;;;;5044690;28;20117;-68
2022/11/28 06:08:23;;;;;;;129.60;10.73;;;;;;;;;;5049944;28;20099;-70
2022/11/28 06:10:55;;;;;;;88.80;9.37;;;;;;;;;;5049406;28;20278;-68
2022/11/28 06:13:20;;;;;;;49.80;9.15;;;;;;;;;;5029338;28;20302;-70
2022/11/28 06:15:45;;;;;;;81.00;10.83;;;;;;;;;;5027619;28;20614;-69
2022/11/28 06:18:10;;;;;;;154.60;20.67;;;;;;;;;;5045729;28;20598;-69
2022/11/28 06:20:35;;;;;;;68.47;9.57;;;;;;;;;;5049871;28;20478;-66
2022/11/28 06:23:01;;;;;;;1999.90;157.47;;;;;;;;;;5035037;28;20330;-67
2022/11/28 06:25:26;;;;;;;504.37;37.07;;;;;;;;;;5033967;28;20025;-67
2022/11/28 06:27:51;;;;;;;159.93;20.00;;;;;;;;;;5025555;28;20335;-67
2022/11/28 06:30:16;;;;;;;228.90;27.57;;;;;;;;;;5041429;28;20656;-67
2022/11/28 06:32:42;;;;;;;206.18;21.15;;;;;;;;;;5050175;28;20390;-67
2022/11/28 06:35:07;;;;;;;334.80;38.63;;;;;;;;;;5048929;28;20086;-67
2022/11/28 06:37:32;;;;;;;266.33;23.27;;;;;;;;;;5045750;28;20111;-67
2022/11/28 06:39:58;;;;;;;427.80;43.83;;;;;;;;;;5033601;28;20104;-67
2022/11/28 06:42:23;;;;;;;480.60;45.80;;;;;;;;;;5051633;28;20274;-67
2022/11/28 06:44:48;;;;;;;89.20;13.87;;;;;;;;;;5043492;28;20938;-67
2022/11/28 06:47:13;;;;;;;319.37;27.40;;;;;;;;;;5049830;28;20646;-66
2022/11/28 06:49:39;;;;;;;317.50;29.37;;;;;;;;;;5032537;28;20024;-67
2022/11/28 06:52:04;;;;;;;208.67;23.83;;;;;;;;;;5047862;28;20021;-67
2022/11/28 06:54:29;;;;;;;163.53;20.87;;;;;;;;;;5045397;28;20021;-66
2022/11/28 06:56:54;;;;;;;58.40;15.43;;;;;;;;;;5045390;28;20025;-69
2022/11/28 06:59:19;;;;;;;97.87;14.60;;;;;;;;;;5045361;28;20431;-69
2022/11/28 07:01:45;;;;;;;54.75;13.25;;;;;;;;;;5048549;28;20755;-69
2022/11/28 07:04:10;;;;;;;52.47;12.93;;;;;;;;;;5048486;28;20040;-68
2022/11/28 07:06:36;;;;;;;298.13;36.22;;;;;;;;;;5048430;28;20274;-67
2022/11/28 07:09:01;;;;;;;111.88;17.75;;;;;;;;;;5041091;28;20032;-67
2022/11/28 07:11:28;;;;;;;195.30;25.67;;;;;;;;;;5041580;28;20389;-67
2022/11/28 07:13:54;;;;;;;220.75;24.15;;;;;;;;;;5042089;28;20281;-66
2022/11/28 07:16:20;;;;;;;186.77;20.95;;;;;;;;;;5039349;28;20067;-66
2022/11/28 07:18:45;;;;;;;264.63;26.65;;;;;;;;;;5045877;28;20059;-67
2022/11/28 07:21:13;;;;;;;538.87;55.43;;;;;;;;;;5026068;28;20478;-67
2022/11/28 07:23:38;;;;;;;220.48;25.92;;;;;;;;;;5041555;28;20380;-67
2022/11/28 07:26:04;;;;;;;244.02;29.23;;;;;;;;;;5031813;28;20171;-67
2022/11/28 07:28:30;;;;;;;626.13;58.28;;;;;;;;;;5045875;28;20021;-66
2022/11/28 07:31:00;;;;;;;649.97;59.55;;;;;;;;;;5029930;28;20028;-66
2022/11/28 07:33:26;;;;;;;325.95;35.65;;;;;;;;;;5049088;28;20085;-68
2022/11/28 07:35:51;;;;;;;296.42;35.47;;;;;;;;;;5042201;28;20021;-67
2022/11/28 07:38:16;;;;;;;95.18;18.48;;;;;;;;;;5046517;28;20021;-67
2022/11/28 07:40:41;;;;;;;536.85;65.53;;;;;;;;;;5029290;28;20031;-67
2022/11/28 07:43:07;;;;;;;482.13;46.90;;;;;;;;;;5044736;28;20437;-69
2022/11/28 07:45:32;;;;;;;601.17;59.00;;;;;;;;;;5047211;28;20029;-68
2022/11/28 07:47:57;;;;;;;105.40;17.40;;;;;;;;;;5044461;28;20029;-68
2022/11/28 07:50:22;;;;;;;57.63;17.37;;;;;;;;;;5035131;28;20368;-69
2022/11/28 07:52:50;;;;;;;58.57;16.83;;;;;;;;;;5037401;28;20025;-68
2022/11/28 07:55:15;;;;;;;48.42;18.95;;;;;;;;;;5049062;28;20288;-69
2022/11/28 07:57:40;;;;;;;49.50;15.13;;;;;;;;;;5041781;28;20657;-69
2022/11/28 08:00:06;;;;;;;45.23;16.03;;;;;;;;;;5029878;28;20282;-69
2022/11/28 08:02:31;;;;;;;33.05;14.63;;;;;;;;;;5050218;28;20021;-69
2022/11/28 08:04:57;;;;;;;33.72;13.40;;;;;;;;;;5050414;28;20043;-69
2022/11/28 08:07:22;;;;;;;42.05;14.18;;;;;;;;;;5050899;28;20025;-69
2022/11/28 08:09:47;;;;;;;40.80;14.13;;;;;;;;;;5040356;28;20493;-68
2022/11/28 08:12:13;;;;;;;61.90;15.13;;;;;;;;;;5041595;28;20031;-69
2022/11/28 08:14:38;;;;;;;57.13;15.68;;;;;;;;;;5035484;28;20487;-69
2022/11/28 08:17:03;;;;;;;49.93;14.80;;;;;;;;;;5041402;28;20026;-69
2022/11/28 08:19:28;;;;;;;49.28;15.40;;;;;;;;;;5029138;28;20120;-69
2022/11/28 08:21:54;;;;;;;39.70;14.43;;;;;;;;;;5044302;28;20025;-69
2022/11/28 08:24:19;;;;;;;38.87;15.17;;;;;;;;;;5051933;28;20048;-69
2022/11/28 08:26:44;;;;;;;38.17;14.35;;;;;;;;;;5047515;28;20049;-69
2022/11/28 08:29:09;;;;;;;46.13;15.57;;;;;;;;;;5048291;28;20053;-69
2022/11/28 08:31:36;;;;;;;41.03;17.27;;;;;;;;;;5050350;28;20274;-69
2022/11/28 08:34:04;;;;;;;36.75;17.02;;;;;;;;;;5052862;28;20073;-69
2022/11/28 08:36:29;;;;;;;45.55;18.85;;;;;;;;;;5039392;28;20033;-68
2022/11/28 08:38:54;;;;;;;42.67;17.83;;;;;;;;;;5047826;28;20028;-69
2022/11/28 08:41:20;;;;;;;41.00;19.60;;;;;;;;;;5028638;28;20752;-69
2022/11/28 08:43:46;;;;;;;45.40;19.45;;;;;;;;;;5033188;28;20498;-68
2022/11/28 08:46:13;;;;;;;42.33;19.45;;;;;;;;;;5047101;28;20021;-69
2022/11/28 08:48:39;;;;;;;47.05;20.77;;;;;;;;;;5030385;28;20033;-67
2022/11/28 08:51:04;;;;;;;52.75;22.05;;;;;;;;;;5046908;28;20162;-68
2022/11/28 08:53:30;;;;;;;54.58;22.98;;;;;;;;;;5047860;28;20037;-68
2022/11/28 08:55:55;;;;;;;52.72;24.13;;;;;;;;;;5046392;28;20040;-68
2022/11/28 08:58:20;;;;;;;62.60;25.65;;;;;;;;;;5043788;28;20078;-69
2022/11/28 09:00:46;;;;;;;73.95;29.60;;;;;;;;;;5041866;28;20032;-68
2022/11/28 09:03:15;;;;;;;68.63;30.67;;;;;;;;;;5050012;28;20490;-69
2022/11/28 09:05:41;;;;;;;63.03;26.63;;;;;;;;;;5044113;28;20278;-69
2022/11/28 09:08:06;;;;;;;59.47;26.02;;;;;;;;;;5040786;28;20040;-68
2022/11/28 09:10:34;;;;;;;66.57;27.83;;;;;;;;;;5042275;28;20512;-68
2022/11/28 09:12:59;;;;;;;60.90;26.20;;;;;;;;;;5044735;28;20035;-68
2022/11/28 09:15:25;;;;;;;65.10;27.10;;;;;;;;;;5051394;28;20017;-68
2022/11/28 09:17:50;;;;;;;68.75;27.10;;;;;;;;;;5034514;28;20036;-68
2022/11/28 09:20:15;;;;;;;78.00;30.23;;;;;;;;;;5041357;28;20671;-69
2022/11/28 09:22:41;;;;;;;90.22;32.70;;;;;;;;;;5049476;28;20677;-69
2022/11/28 09:25:07;;;;;;;100.25;34.00;;;;;;;;;;5030969;28;20034;-68
2022/11/28 09:27:32;;;;;;;88.18;32.97;;;;;;;;;;5034240;28;20044;-69
2022/11/28 09:29:57;;;;;;;98.17;36.33;;;;;;;;;;5026879;28;20029;-69
2022/11/28 09:32:22;;;;;;;104.83;37.03;;;;;;;;;;5044001;28;20039;-69
2022/11/28 09:34:48;;;;;;;107.33;37.37;;;;;;;;;;5048784;28;20047;-69
2022/11/28 09:37:13;;;;;;;98.53;36.00;;;;;;;;;;5049513;28;20128;-69
2022/11/28 09:39:39;;;;;;;96.53;34.70;;;;;;;;;;5027910;28;20454;-69
2022/11/28 09:42:10;;;;;;;92.25;34.10;;;;;;;;;;5049945;28;20340;-69
2022/11/28 09:44:48;;;;;;;96.25;34.85;;;;;;;;;;5040346;28;20025;-69
2022/11/28 09:47:24;;;;;;;97.88;34.80;;;;;;;1.85;nan;101315.28;5043950;28;20048;-69
2022/11/28 09:49:56;;;;;;;84.55;32.90;;;;;;;1.97;nan;101320.28;5042982;28;20389;-69
2022/11/28 09:52:37;;;;;;;77.47;31.50;;;;;;;2.13;nan;101325.63;5045656;28;20021;-69
2022/11/28 09:55:06;;;;;;;71.88;31.23;;;;;;;;;;5046335;28;20074;-69
2022/11/28 09:57:43;;;;;;;64.75;28.45;;;;;;;;;;5039494;28;20024;-70
2022/11/28 10:00:31;;;;;;;65.78;29.30;;;;;;;;;;5042614;28;20075;-70
2022/11/28 10:03:15;;;;;;;66.68;29.25;;;;;;;;;;5032889;28;20402;-69
2022/11/28 10:05:58;;;;;;;63.90;28.88;;;;;;;2.70;nan;101310.56;5046576;28;20108;-69
2022/11/28 10:08:41;;;;;;;59.17;27.90;;;;;;;2.84;nan;101317.00;5044400;28;20171;-69
2022/11/28 10:12:02;;;;;;;56.65;26.85;;;;;;;3.08;nan;101307.75;5046978;28;20025;-70
2022/11/28 10:14:50;;;;;;;62.72;26.80;;;;;;;;;;4967340;28;20133;-69
2022/11/28 10:17:38;;;;;;;42.88;20.80;;;;;;;;;;4965535;28;20030;-70
2022/11/28 10:20:09;;;;;;;40.50;20.45;;;;;;;;;;4952188;28;20042;-69
2022/11/28 10:22:41;;;;;;;47.22;23.40;;;;;;;;;;4971528;28;20508;-69
2022/11/28 10:25:17;;;;;;;52.85;24.80;;;;;;;;;;4966274;28;20063;-69
2022/11/28 10:27:43;;;;;;;47.67;25.30;;;;;;;;;;4966701;28;20133;-69
2022/11/28 10:30:14;;;;;;;64.35;30.50;;;;;;;;;;4948963;28;20551;-68
2022/11/28 10:32:42;;;;;;;63.50;29.73;;;;;;;;;;4965032;28;20114;-70
2022/11/28 10:35:24;;;;;;;66.05;31.85;;;;;;;;;;4961778;28;20125;-70
2022/11/28 10:37:50;;;;;;;65.82;29.65;;;;;;;5.19;nan;101310.94;4962626;28;20527;-67
2022/11/28 10:40:16;;;;;;;40.15;20.88;;;;;;;;;;4956020;28;20022;-67
2022/11/28 10:43:00;;;;;;;34.97;17.73;;;;;;;;;;4961530;28;20183;-67
2022/11/28 10:45:28;;;;;;;25.98;15.25;;;;;;;;;;4974128;28;20288;-69
2022/11/28 10:47:56;;;;;;;32.33;15.00;;;;;;;;;;4971204;28;21301;-69
2022/11/28 10:50:48;;;;;;;28.77;15.57;;;;;;;;;;5014732;28;20587;-68
2022/11/28 10:53:25;;;;;;;34.58;17.17;;;;;;;;;;5043379;28;20120;-68
2022/11/28 10:56:09;;;;;;;35.33;16.75;;;;;;;;;;5046688;28;20017;-68
2022/11/28 10:58:37;;;;;;;39.83;17.92;;;;;;;;;;5049378;28;20037;-70
2022/11/28 11:01:02;;;;;;;31.00;17.23;;;;;;;;;;5050930;28;20033;-69
2022/11/28 11:03:30;;;;;;;30.48;16.40;;;;;;;;;;5046472;28;20124;-67
2022/11/28 11:05:55;;;;;;;29.63;16.08;;;;;;;;;;5046473;28;20051;-68
2022/11/28 11:08:22;;;;;;;25.15;12.63;;;;;;;;;;5044518;28;20518;-68
2022/11/28 11:10:49;;;;;;;17.80;10.30;;;;;;;;;;5045042;28;20055;-69
2022/11/28 11:13:19;;;;;;;22.77;10.88;;;;;;;;;;5040638;28;20070;-67
2022/11/28 11:15:58;;;;;;;19.52;11.35;;;;;;;;;;5047390;28;20390;-69
2022/11/28 11:18:28;;;;;;;19.83;10.93;;;;;;;;;;5043760;28;20032;-69
2022/11/28 11:21:07;;;;;;;19.98;11.40;;;;;;;;;;5043424;28;20094;-69
2022/11/28 11:23:32;;;;;;;17.10;10.30;;;;;;;;;;5040993;28;20081;-69
2022/11/28 11:25:57;;;;;;;17.17;9.53;;;;;;;;;;5045210;28;20492;-68
2022/11/28 11:28:26;;;;;;;12.63;7.18;;;;;;;;;;5025971;28;20127;-70
2022/11/28 11:30:58;;;;;;;16.55;8.95;;;;;;;;;;5044254;28;20115;-68
2022/11/28 11:33:25;;;;;;;15.30;8.50;;;;;;;;;;5043164;28;20541;-68
2022/11/28 11:35:51;;;;;;;15.27;8.13;;;;;;;;;;5037725;28;20032;-68
2022/11/28 11:38:25;;;;;;;13.98;8.20;;;;;;;;;;5042502;28;20024;-69
2022/11/28 11:40:50;;;;;;;15.18;8.45;;;;;;;;;;5039834;28;20040;-68
2022/11/28 11:43:25;;;;;;;15.07;7.47;;;;;;;;;;5047937;28;20467;-69
2022/11/28 11:46:10;;;;;;;13.15;7.82;;;;;;;;;;5050084;28;20427;-69
2022/11/28 11:48:39;;;;;;;11.18;6.43;;;;;;;;;;5045041;28;20025;-68
2022/11/28 11:51:06;;;;;;;11.95;7.93;;;;;;;;;;5042715;28;20025;-67
2022/11/28 11:53:31;;;;;;;14.52;7.75;;;;;;;;;;5043694;28;20029;-68
2022/11/28 11:55:59;;;;;;;15.30;7.73;;;;;;;;;;5038412;28;20098;-68
2022/11/28 11:58:27;;;;;;;12.07;6.97;;;;;;;;;;5045103;28;20036;-67
2022/11/28 12:00:55;;;;;;;15.13;9.20;;;;;;;;;;5044478;28;20033;-69
2022/11/28 12:03:40;;;;;;;12.95;7.68;;;;;;;;;;5046500;28;20410;-68
2022/11/28 12:06:10;;;;;;;14.48;7.75;;;;;;;;;;5046920;28;20040;-69
2022/11/28 12:08:54;;;;;;;14.13;7.80;;;;;;;;;;5049403;28;20036;-69
2022/11/28 12:11:27;;;;;;;15.05;8.60;;;;;;;;;;5044051;28;20021;-67
2022/11/28 12:13:53;;;;;;;18.50;8.88;;;;;;;;;;5030335;28;20044;-67
2022/11/28 12:16:19;;;;;;;15.77;8.70;;;;;;;;;;5043908;28;20108;-68
2022/11/28 12:19:03;;;;;;;15.82;8.35;;;;;;;;;;5026257;28;20282;-68
2022/11/28 12:21:28;;;;;;;17.65;8.85;;;;;;;;;;5042693;28;20036;-68
2022/11/28 12:24:06;;;;;;;15.07;8.53;;;;;;;;;;5044990;28;20398;-69
2022/11/28 12:26:34;;;;;;;20.75;9.18;;;;;;;;;;5031637;28;20033;-67
2022/11/28 12:29:06;;;;;;;17.35;8.95;;;;;;;;;;5042339;28;20021;-66
2022/11/28 12:31:50;;;;;;;16.40;9.43;;;;;;;;;;5027873;28;20039;-67
2022/11/28 12:34:16;;;;;;;19.45;9.77;;;;;;;;;;5041494;28;20025;-69
2022/11/28 12:36:41;;;;;;;16.57;9.27;;;;;;;;;;5030560;28;20033;-69
2022/11/28 12:39:12;;;;;;;17.40;8.93;;;;;;;;;;5030141;28;20052;-68
2022/11/28 12:41:40;;;;;;;17.85;10.10;;;;;;;;;;5027221;28;20029;-69
2022/11/28 12:44:24;;;;;;;19.30;9.35;;;;;;;;;;5041998;28;20029;-68
2022/11/28 12:46:57;;;;;;;18.38;9.65;;;;;;;;;;5032571;28;20394;-68
2022/11/28 12:49:35;;;;;;;17.50;10.25;;;;;;;;;;5039998;28;20049;-68
2022/11/28 12:52:09;;;;;;;18.63;10.98;;;;;;;;;;5044302;28;20037;-68
2022/11/28 12:54:54;;;;;;;32.42;16.52;;;;;;;;;;5039413;28;20115;-68
2022/11/28 12:57:38;;;;;;;33.55;18.95;;;;;;;;;;5026587;28;20027;-69
2022/11/28 13:00:13;;;;;;;31.17;17.90;;;;;;;;;;5042031;28;20033;-68
2022/11/28 13:02:39;;;;;;;38.47;19.10;;;;;;;;;;5021248;28;20039;-68
2022/11/28 13:05:04;;;;;;;36.95;20.17;;;;;;;;;;5035445;28;20025;-68
2022/11/28 13:07:38;;;;;;;35.10;18.50;;;;;;;;;;5040289;28;20033;-68
2022/11/28 13:10:22;;;;;;;37.25;19.60;;;;;;;;;;5037362;28;20033;-68
2022/11/28 13:12:59;;;;;;;35.63;18.70;;;;;;;;;;5035120;28;20026;-69
2022/11/28 13:15:43;;;;;;;33.83;18.50;;;;;;;;;;5036303;28;20021;-68
2022/11/28 13:18:22;;;;;;;35.83;20.05;;;;;;;;;;5035813;28;20026;-69
2022/11/28 13:20:51;;;;;;;37.00;19.63;;;;;;;;;;5033428;28;20056;-68
2022/11/28 13:23:20;;;;;;;37.33;18.48;;;;;;;;;;5034744;28;20107;-69
2022/11/28 13:25:51;;;;;;;41.28;19.45;;;;;;;;;;5035917;28;20041;-68
2022/11/28 13:28:43;;;;;;;37.85;20.13;;;;;;;;;;5036304;28;20087;-69
2022/11/28 13:31:20;;;;;;;34.88;19.70;;;;;;;;;;5031201;28;20156;-69
2022/11/28 13:33:49;;;;;;;40.85;21.38;;;;;;;;;;5034543;28;20064;-69
2022/11/28 13:36:38;;;;;;;36.97;22.00;;;;;;;;;;5034527;28;20068;-69
2022/11/28 13:39:18;;;;;;;39.03;22.23;;;;;;;;;;4978176;28;20080;-69
2022/11/28 13:41:48;;;;;;;49.30;24.70;;;;;;;;;;4980058;28;20042;-69
2022/11/28 13:44:14;;;;;;;43.40;22.83;;;;;;;;;;4958801;28;20603;-69
2022/11/28 13:46:41;;;;;;;43.58;21.02;;;;;;;;;;4983026;28;20034;-69
2022/11/28 13:49:08;;;;;;;38.72;20.92;;;;;;;;;;4981488;28;20705;-69
2022/11/28 13:51:34;;;;;;;40.67;21.85;;;;;;;;;;4975360;28;20045;-69
2022/11/28 13:54:17;;;;;;;40.97;21.02;;;;;;;;;;4957926;28;20034;-70
2022/11/28 13:56:47;;;;;;;38.92;20.67;;;;;;;;;;4980108;28;20030;-69
2022/11/28 13:59:18;;;;;;;37.25;20.33;;;;;;;;;;4982435;28;20096;-69
2022/11/28 14:01:44;;;;;;;40.78;20.05;;;;;;;;;;4978419;28;20033;-69
2022/11/28 14:04:15;;;;;;;39.28;19.08;;;;;;;;;;4981708;28;20074;-69
2022/11/28 14:06:48;;;;;;;34.10;17.38;;;;;;;;;;4954659;28;20073;-69
2022/11/28 14:09:13;;;;;;;31.23;16.75;;;;;;;;;;4979266;28;20034;-69
2022/11/28 14:11:41;;;;;;;31.73;16.33;;;;;;;;;;4975371;28;20127;-67
2022/11/28 14:14:18;;;;;;;26.55;16.20;;;;;;;;;;4976113;28;20177;-67
2022/11/28 14:17:02;;;;;;;25.98;13.93;;;;;;;;;;5003125;28;20041;-67
2022/11/28 14:19:27;;;;;;;23.75;13.90;;;;;;;;;;5019766;28;20395;-66
2022/11/28 14:22:02;;;;;;;25.97;13.43;;;;;;;;;;5043577;28;20029;-66